createdAt,value
2023-02-16T17:01:58.228Z,172.50
2023-02-16T17:03:31.379Z,175.50
2023-02-16T17:05:03.942Z,169.75
2023-02-16T17:06:35.975Z,175.25
2023-02-16T17:08:08.820Z,170.75
2023-02-16T17:09:41.020Z,171.75
2023-02-16T17:11:25.337Z,165.00
2023-02-16T17:12:58.750Z,207.67
2023-02-16T17:14:30.679Z,206.00
2023-02-16T17:16:29.493Z,204.33
2023-02-16T17:18:01.934Z,196.00
2023-02-16T17:19:33.977Z,186.75
2023-02-16T17:21:05.980Z,165.50
2023-02-16T17:22:37.813Z,160.00
2023-02-16T17:24:10.522Z,149.50
2023-02-16T17:25:42.646Z,147.75
2023-02-16T17:27:14.575Z,147.75
2023-02-16T17:28:46.479Z,146.00
2023-02-16T17:30:18.420Z,133.25
2023-02-16T17:31:50.739Z,135.50
2023-02-16T17:33:22.747Z,152.50
2023-02-16T17:34:54.625Z,172.75
2023-02-16T17:36:26.729Z,159.00
2023-02-16T17:37:58.539Z,144.00
2023-02-16T17:39:30.660Z,156.75
2023-02-16T17:41:02.567Z,140.75
2023-02-16T17:42:34.755Z,148.50
2023-02-16T17:44:06.806Z,153.25
2023-02-16T17:45:38.794Z,149.25
2023-02-16T17:47:15.535Z,152.50
2023-02-16T17:48:51.594Z,157.50
2023-02-16T17:50:23.389Z,159.50
2023-02-16T17:51:55.374Z,146.00
2023-02-16T17:53:27.493Z,153.75
2023-02-16T17:54:59.406Z,157.75
2023-02-16T17:56:31.452Z,154.50
2023-02-16T17:58:03.368Z,164.00
2023-02-16T17:59:35.268Z,170.00
2023-02-16T18:01:07.657Z,166.75
2023-02-16T18:02:39.577Z,159.75
2023-02-16T18:04:11.592Z,174.50
2023-02-16T18:05:43.463Z,168.25
2023-02-16T18:07:20.027Z,174.75
2023-02-16T18:08:52.509Z,184.00
2023-02-16T18:10:34.020Z,176.75
2023-02-16T18:12:06.108Z,189.75
2023-02-16T18:13:38.327Z,202.33
2023-02-16T18:15:10.472Z,193.00
2023-02-16T18:16:42.526Z,197.00
2023-02-16T18:18:15.787Z,198.67
2023-02-16T18:19:47.684Z,193.67
2023-02-16T18:21:19.614Z,193.67
2023-02-16T18:22:51.448Z,197.33
2023-02-16T18:24:23.210Z,198.67
2023-02-16T18:25:55.203Z,197.00
2023-02-16T18:27:29.333Z,196.33
2023-02-16T18:29:01.332Z,184.67
2023-02-16T18:30:33.447Z,183.00
2023-02-16T18:32:05.609Z,189.25
2023-02-16T18:33:37.528Z,219.00
2023-02-16T18:35:10.438Z,209.67
2023-02-16T18:36:42.589Z,207.00
2023-02-16T18:38:14.746Z,191.67
2023-02-16T18:39:46.684Z,175.75
2023-02-16T18:41:18.689Z,185.75
2023-02-16T18:42:50.910Z,175.25
2023-02-16T18:44:22.979Z,176.00
2023-02-16T18:45:54.926Z,179.00
2023-02-16T18:47:26.909Z,191.25
2023-02-16T18:48:58.728Z,183.50
2023-02-16T18:50:30.616Z,182.25
2023-02-16T18:52:02.521Z,173.00
2023-02-16T18:53:34.754Z,173.00
2023-02-16T18:55:07.138Z,178.25
2023-02-16T18:56:40.740Z,186.75
2023-02-16T18:58:13.639Z,189.33
2023-02-16T18:59:45.870Z,198.00
2023-02-16T19:01:31.214Z,207.33
2023-02-16T19:03:03.670Z,198.67
2023-02-16T19:04:35.892Z,199.33
2023-02-16T19:06:08.182Z,192.33
2023-02-16T19:07:40.190Z,189.33
2023-02-16T19:09:12.282Z,199.67
2023-02-16T19:10:44.202Z,236.25
2023-02-16T19:12:16.744Z,196.67
2023-02-16T19:13:48.917Z,202.00
2023-02-16T19:15:20.999Z,201.67
2023-02-16T19:16:53.019Z,203.67
2023-02-16T19:18:26.779Z,206.67
2023-02-16T19:19:58.995Z,200.00
2023-02-16T19:21:31.027Z,198.00
2023-02-16T19:23:02.855Z,197.00
2023-02-16T19:24:35.353Z,198.00
2023-02-16T19:26:11.552Z,206.67
2023-02-16T19:27:44.389Z,192.67
2023-02-16T19:29:16.602Z,203.00
2023-02-16T19:30:49.970Z,201.33
2023-02-16T19:32:22.098Z,197.33
2023-02-16T19:33:54.480Z,174.00
2023-02-16T19:35:26.450Z,220.00
2023-02-16T19:36:58.402Z,201.67
2023-02-16T19:38:30.290Z,180.67
2023-02-16T19:40:02.574Z,190.67
2023-02-16T19:41:36.415Z,186.33
2023-02-16T19:43:08.513Z,197.00
2023-02-16T19:44:40.923Z,186.33
2023-02-16T19:46:13.205Z,195.33
2023-02-16T19:47:45.136Z,181.00
2023-02-16T19:49:17.302Z,189.25
2023-02-16T19:50:49.207Z,190.33
2023-02-16T19:52:21.211Z,188.33
2023-02-16T19:53:53.222Z,191.67
2023-02-16T19:55:25.185Z,183.50
2023-02-16T19:56:57.689Z,175.75
2023-02-16T19:58:29.538Z,179.75
2023-02-16T20:00:03.309Z,241.33
2023-02-16T20:01:43.738Z,191.33
2023-02-16T20:03:15.687Z,180.00
2023-02-16T20:04:47.525Z,186.75
2023-02-16T20:06:19.418Z,167.50
2023-02-16T20:07:52.124Z,168.75
2023-02-16T20:09:24.180Z,170.25
2023-02-16T20:10:56.086Z,166.25
2023-02-16T20:12:28.862Z,170.00
2023-02-16T20:14:00.980Z,181.75
2023-02-16T20:15:32.981Z,171.00
2023-02-16T20:17:05.046Z,159.00
2023-02-16T20:18:37.544Z,170.25
2023-02-16T20:20:09.704Z,154.25
2023-02-16T20:21:44.253Z,148.00
2023-02-16T20:23:16.156Z,155.25
2023-02-16T20:24:48.001Z,156.75
2023-02-16T20:26:33.632Z,152.50
2023-02-16T20:28:05.950Z,153.25
2023-02-16T20:29:38.071Z,176.25
2023-02-16T20:31:32.969Z,320.75
2023-02-16T20:33:04.844Z,231.33
2023-02-16T20:34:36.692Z,219.00
2023-02-16T20:36:08.914Z,198.67
2023-02-16T20:37:41.234Z,193.67
2023-02-16T20:39:13.356Z,182.75
2023-02-16T20:40:45.301Z,172.75
2023-02-16T20:42:17.180Z,179.50
2023-02-16T20:43:49.314Z,188.00
2023-02-16T20:45:22.279Z,203.67
2023-02-16T20:46:54.297Z,187.33
2023-02-16T20:48:26.579Z,171.00
2023-02-16T20:49:58.487Z,167.00
2023-02-16T20:51:31.001Z,171.00
2023-02-16T20:53:02.915Z,156.75
2023-02-16T20:54:35.299Z,166.00
2023-02-16T20:56:14.914Z,167.25
2023-02-16T20:57:46.806Z,171.25
2023-02-16T20:59:18.649Z,158.50
2023-02-16T21:00:50.514Z,164.00
2023-02-16T21:02:22.514Z,160.25
2023-02-16T21:03:54.855Z,172.50
2023-02-16T21:05:27.141Z,164.00
2023-02-16T21:06:59.041Z,162.00
2023-02-16T21:08:30.980Z,173.25
2023-02-16T21:10:03.770Z,177.25
2023-02-16T21:11:35.742Z,165.00
2023-02-16T21:13:07.612Z,157.50
2023-02-16T21:14:39.568Z,382.25
2023-02-16T21:16:11.645Z,269.25
2023-02-16T21:17:43.580Z,266.25
2023-02-16T21:19:22.963Z,241.50
2023-02-16T21:20:55.376Z,224.67
2023-02-16T21:22:27.283Z,203.33
2023-02-16T21:23:59.223Z,196.00
2023-02-16T21:25:31.277Z,210.33
2023-02-16T21:27:03.206Z,198.67
2023-02-16T21:28:35.127Z,196.33
2023-02-16T21:30:07.469Z,187.67
2023-02-16T21:31:39.573Z,194.67
2023-02-16T21:33:11.631Z,191.67
2023-02-16T21:34:44.227Z,186.00
2023-02-16T21:36:18.024Z,200.67
2023-02-16T21:37:50.011Z,188.00
2023-02-16T21:39:42.422Z,185.00
2023-02-16T21:41:25.104Z,187.00
2023-02-16T21:42:57.202Z,179.33
2023-02-16T21:44:29.141Z,190.00
2023-02-16T21:46:01.608Z,179.50
2023-02-16T21:47:52.171Z,188.33
2023-02-16T21:49:24.013Z,194.00
2023-02-16T21:50:56.583Z,184.00
2023-02-16T21:52:28.422Z,180.00
2023-02-16T21:54:00.332Z,176.67
2023-02-16T21:55:50.724Z,159.00
2023-02-16T21:57:24.660Z,190.00
2023-02-16T21:58:56.907Z,173.75
2023-02-16T22:00:29.056Z,171.75
2023-02-16T22:02:00.894Z,171.25
2023-02-16T22:03:32.987Z,175.25
2023-02-16T22:05:04.888Z,167.50
2023-02-16T22:06:42.026Z,170.00
2023-02-16T22:08:14.517Z,151.50
2023-02-16T22:09:46.610Z,153.25
2023-02-16T22:11:18.531Z,160.25
2023-02-16T22:12:50.411Z,153.25
2023-02-16T22:14:22.326Z,150.00
2023-02-16T22:15:54.241Z,152.00
2023-02-16T22:17:26.068Z,146.50
2023-02-16T22:19:04.058Z,138.75
2023-02-16T22:20:36.915Z,141.75
2023-02-16T22:22:08.984Z,130.75
2023-02-16T22:23:40.849Z,132.50
2023-02-16T22:25:12.899Z,124.25
2023-02-16T22:26:45.331Z,128.50
2023-02-16T22:28:17.229Z,125.50
2023-02-16T22:29:49.081Z,125.00
2023-02-16T22:31:21.899Z,122.25
2023-02-16T22:32:53.759Z,125.25
2023-02-16T22:34:25.664Z,113.75
2023-02-16T22:35:57.545Z,100.50
2023-02-16T22:37:29.485Z,115.00
2023-02-16T22:39:01.355Z,105.40
2023-02-16T22:40:33.481Z,107.20
2023-02-16T22:42:05.380Z,104.60
2023-02-16T22:43:37.527Z,106.40
2023-02-16T22:45:09.930Z,93.60
2023-02-16T22:46:41.854Z,87.75
2023-02-16T22:48:13.689Z,99.00
2023-02-16T22:49:45.930Z,99.00
2023-02-16T22:51:17.886Z,92.25
2023-02-16T22:52:49.778Z,92.75
2023-02-16T22:54:23.296Z,85.75
2023-02-16T22:55:55.482Z,93.25
2023-02-16T22:57:27.366Z,86.25
2023-02-16T22:58:59.461Z,81.75
2023-02-16T23:00:31.363Z,83.50
2023-02-16T23:02:03.310Z,80.00
2023-02-16T23:03:35.129Z,77.25
2023-02-16T23:05:07.181Z,81.25
2023-02-16T23:06:39.064Z,80.75
2023-02-16T23:08:11.218Z,70.75
2023-02-16T23:09:43.058Z,69.00
2023-02-16T23:11:14.991Z,65.25
2023-02-16T23:12:46.887Z,65.50
2023-02-16T23:14:19.300Z,77.00
2023-02-16T23:15:51.120Z,65.00
2023-02-16T23:17:23.182Z,64.25
2023-02-16T23:18:56.342Z,63.25
2023-02-16T23:20:28.174Z,65.50
2023-02-16T23:22:00.169Z,66.25
2023-02-16T23:23:32.112Z,65.50
2023-02-16T23:25:22.720Z,60.00
2023-02-16T23:26:54.977Z,64.75
2023-02-16T23:28:26.802Z,67.25
2023-02-16T23:29:58.817Z,57.00
2023-02-16T23:31:32.620Z,56.50
2023-02-16T23:33:04.563Z,51.00
2023-02-16T23:34:36.498Z,57.25
